sensor_id;sensor_type;location;lat;lon;timestamp;P1;durP1;ratioP1;P2;durP2;ratioP2
3307;SDS011;1666;48.898;9.182;2024-02-14T00:02:09;16.38;;;9.82;;
3307;SDS011;1666;48.898;9.182;2024-02-14T00:04:39;15.98;;;8.98;;
3307;SDS011;1666;48.898;9.182;2024-02-14T00:07:09;15.40;;;9.43;;
3307;SDS011;1666;48.898;9.182;2024-02-14T00:09:39;18.33;;;9.23;;
3307;SDS011;1666;48.898;9.182;2024-02-14T00:12:09;14.70;;;9.27;;
3307;SDS011;1666;48.898;9.182;2024-02-14T00:14:39;16.65;;;8.98;;
3307;SDS011;1666;48.898;9.182;2024-02-14T00:17:12;12.05;;;8.77;;
3307;SDS011;1666;48.898;9.182;2024-02-14T00:19:42;17.50;;;9.63;;
3307;SDS011;1666;48.898;9.182;2024-02-14T00:22:12;23.08;;;11.05;;
3307;SDS011;1666;48.898;9.182;2024-02-14T00:24:43;14.80;;;9.73;;
3307;SDS011;1666;48.898;9.182;2024-02-14T00:27:13;18.13;;;9.85;;
3307;SDS011;1666;48.898;9.182;2024-02-14T00:29:44;13.45;;;9.18;;
3307;SDS011;1666;48.898;9.182;2024-02-14T00:32:17;21.60;;;9.48;;
3307;SDS011;1666;48.898;9.182;2024-02-14T00:34:52;15.13;;;8.85;;
3307;SDS011;1666;48.898;9.182;2024-02-14T00:37:22;17.50;;;9.82;;
3307;SDS011;1666;48.898;9.182;2024-02-14T00:39:52;13.75;;;8.52;;
3307;SDS011;1666;48.898;9.182;2024-02-14T00:42:24;13.23;;;8.65;;
3307;SDS011;1666;48.898;9.182;2024-02-14T00:44:54;13.20;;;8.13;;
3307;SDS011;1666;48.898;9.182;2024-02-14T00:47:27;14.98;;;8.73;;
3307;SDS011;1666;48.898;9.182;2024-02-14T00:49:57;14.43;;;8.50;;
3307;SDS011;1666;48.898;9.182;2024-02-14T00:52:27;14.90;;;9.02;;
3307;SDS011;1666;48.898;9.182;2024-02-14T00:54:57;17.52;;;9.25;;
3307;SDS011;1666;48.898;9.182;2024-02-14T00:57:31;11.77;;;7.85;;
3307;SDS011;1666;48.898;9.182;2024-02-14T01:00:01;13.30;;;8.30;;
3307;SDS011;1666;48.898;9.182;2024-02-14T01:02:36;12.73;;;8.25;;
3307;SDS011;1666;48.898;9.182;2024-02-14T01:05:06;14.07;;;8.50;;
3307;SDS011;1666;48.898;9.182;2024-02-14T01:07:36;12.68;;;7.53;;
3307;SDS011;1666;48.898;9.182;2024-02-14T01:10:07;17.13;;;7.57;;
3307;SDS011;1666;48.898;9.182;2024-02-14T01:12:37;14.60;;;7.45;;
3307;SDS011;1666;48.898;9.182;2024-02-14T01:15:07;10.80;;;6.68;;
3307;SDS011;1666;48.898;9.182;2024-02-14T01:17:40;9.93;;;6.63;;
3307;SDS011;1666;48.898;9.182;2024-02-14T01:20:14;8.73;;;5.75;;
3307;SDS011;1666;48.898;9.182;2024-02-14T01:22:45;10.18;;;6.07;;
3307;SDS011;1666;48.898;9.182;2024-02-14T01:25:21;8.32;;;5.53;;
3307;SDS011;1666;48.898;9.182;2024-02-14T01:27:51;8.45;;;5.35;;
3307;SDS011;1666;48.898;9.182;2024-02-14T01:30:21;9.18;;;5.72;;
3307;SDS011;1666;48.898;9.182;2024-02-14T01:32:54;7.55;;;5.43;;
3307;SDS011;1666;48.898;9.182;2024-02-14T01:35:24;8.68;;;5.80;;
3307;SDS011;1666;48.898;9.182;2024-02-14T01:37:54;10.20;;;5.55;;
3307;SDS011;1666;48.898;9.182;2024-02-14T01:40:24;9.05;;;5.53;;
3307;SDS011;1666;48.898;9.182;2024-02-14T01:43:02;8.95;;;4.78;;
3307;SDS011;1666;48.898;9.182;2024-02-14T01:45:32;7.63;;;5.35;;
3307;SDS011;1666;48.898;9.182;2024-02-14T01:48:14;10.75;;;5.47;;
3307;SDS011;1666;48.898;9.182;2024-02-14T01:50:45;10.73;;;5.45;;
3307;SDS011;1666;48.898;9.182;2024-02-14T01:53:16;8.93;;;5.20;;
3307;SDS011;1666;48.898;9.182;2024-02-14T01:55:46;7.30;;;5.22;;
3307;SDS011;1666;48.898;9.182;2024-02-14T01:58:16;13.30;;;6.03;;
3307;SDS011;1666;48.898;9.182;2024-02-14T02:00:46;6.70;;;4.70;;
3307;SDS011;1666;48.898;9.182;2024-02-14T02:03:19;10.63;;;5.30;;
3307;SDS011;1666;48.898;9.182;2024-02-14T02:05:50;8.55;;;5.28;;
3307;SDS011;1666;48.898;9.182;2024-02-14T02:08:20;10.30;;;5.60;;
3307;SDS011;1666;48.898;9.182;2024-02-14T02:10:51;7.65;;;5.57;;
3307;SDS011;1666;48.898;9.182;2024-02-14T02:13:41;7.25;;;4.97;;
3307;SDS011;1666;48.898;9.182;2024-02-14T02:16:31;10.23;;;5.55;;
3307;SDS011;1666;48.898;9.182;2024-02-14T02:19:32;10.50;;;5.10;;
3307;SDS011;1666;48.898;9.182;2024-02-14T02:22:23;10.00;;;5.50;;
3307;SDS011;1666;48.898;9.182;2024-02-14T02:25:15;8.63;;;5.30;;
3307;SDS011;1666;48.898;9.182;2024-02-14T02:28:01;12.85;;;5.50;;
3307;SDS011;1666;48.898;9.182;2024-02-14T02:30:36;10.30;;;5.13;;
3307;SDS011;1666;48.898;9.182;2024-02-14T02:33:06;9.27;;;5.72;;
3307;SDS011;1666;48.898;9.182;2024-02-14T02:35:37;9.30;;;5.45;;
3307;SDS011;1666;48.898;9.182;2024-02-14T02:38:28;11.80;;;5.40;;
3307;SDS011;1666;48.898;9.182;2024-02-14T02:41:21;11.18;;;5.07;;
3307;SDS011;1666;48.898;9.182;2024-02-14T02:44:10;8.23;;;5.22;;
3307;SDS011;1666;48.898;9.182;2024-02-14T02:47:03;8.77;;;5.18;;
3307;SDS011;1666;48.898;9.182;2024-02-14T02:49:53;12.15;;;5.45;;
3307;SDS011;1666;48.898;9.182;2024-02-14T02:52:44;8.13;;;5.20;;
3307;SDS011;1666;48.898;9.182;2024-02-14T02:55:34;8.20;;;5.57;;
3307;SDS011;1666;48.898;9.182;2024-02-14T02:58:07;9.13;;;5.45;;
3307;SDS011;1666;48.898;9.182;2024-02-14T03:00:38;9.32;;;4.85;;
3307;SDS011;1666;48.898;9.182;2024-02-14T03:03:20;11.27;;;4.95;;
3307;SDS011;1666;48.898;9.182;2024-02-14T03:06:06;10.30;;;4.90;;
3307;SDS011;1666;48.898;9.182;2024-02-14T03:08:56;9.07;;;4.30;;
3307;SDS011;1666;48.898;9.182;2024-02-14T03:11:46;8.98;;;5.15;;
3307;SDS011;1666;48.898;9.182;2024-02-14T03:14:39;7.43;;;4.65;;
3307;SDS011;1666;48.898;9.182;2024-02-14T03:17:30;7.28;;;4.50;;
3307;SDS011;1666;48.898;9.182;2024-02-14T03:20:01;10.13;;;5.07;;
3307;SDS011;1666;48.898;9.182;2024-02-14T03:22:35;8.68;;;5.18;;
3307;SDS011;1666;48.898;9.182;2024-02-14T03:25:08;9.07;;;5.78;;
3307;SDS011;1666;48.898;9.182;2024-02-14T03:27:47;10.18;;;6.25;;
3307;SDS011;1666;48.898;9.182;2024-02-14T03:30:22;8.45;;;5.78;;
3307;SDS011;1666;48.898;9.182;2024-02-14T03:32:54;10.82;;;6.28;;
3307;SDS011;1666;48.898;9.182;2024-02-14T03:35:24;12.27;;;6.82;;
3307;SDS011;1666;48.898;9.182;2024-02-14T03:37:54;13.13;;;6.97;;
3307;SDS011;1666;48.898;9.182;2024-02-14T03:40:24;9.68;;;6.28;;
3307;SDS011;1666;48.898;9.182;2024-02-14T03:42:56;9.57;;;6.28;;
3307;SDS011;1666;48.898;9.182;2024-02-14T03:45:29;12.02;;;5.97;;
3307;SDS011;1666;48.898;9.182;2024-02-14T03:47:59;12.05;;;6.80;;
3307;SDS011;1666;48.898;9.182;2024-02-14T03:50:29;11.23;;;6.38;;
3307;SDS011;1666;48.898;9.182;2024-02-14T03:52:59;9.13;;;5.90;;
3307;SDS011;1666;48.898;9.182;2024-02-14T03:55:30;8.85;;;5.53;;
3307;SDS011;1666;48.898;9.182;2024-02-14T03:58:00;10.80;;;5.75;;
3307;SDS011;1666;48.898;9.182;2024-02-14T04:00:33;9.10;;;5.88;;
3307;SDS011;1666;48.898;9.182;2024-02-14T04:03:04;8.18;;;5.68;;
3307;SDS011;1666;48.898;9.182;2024-02-14T04:05:34;9.85;;;6.25;;
3307;SDS011;1666;48.898;9.182;2024-02-14T04:08:05;9.05;;;6.05;;
3307;SDS011;1666;48.898;9.182;2024-02-14T04:10:36;10.43;;;6.00;;
3307;SDS011;1666;48.898;9.182;2024-02-14T04:13:06;8.43;;;5.30;;
3307;SDS011;1666;48.898;9.182;2024-02-14T04:15:39;12.02;;;5.25;;
3307;SDS011;1666;48.898;9.182;2024-02-14T04:18:11;9.38;;;5.35;;
3307;SDS011;1666;48.898;9.182;2024-02-14T04:20:42;9.82;;;5.32;;
3307;SDS011;1666;48.898;9.182;2024-02-14T04:23:12;11.40;;;6.15;;
3307;SDS011;1666;48.898;9.182;2024-02-14T04:25:43;13.63;;;6.13;;
3307;SDS011;1666;48.898;9.182;2024-02-14T04:28:14;9.43;;;5.60;;
3307;SDS011;1666;48.898;9.182;2024-02-14T04:30:47;12.45;;;5.65;;
3307;SDS011;1666;48.898;9.182;2024-02-14T04:33:24;9.45;;;5.15;;
3307;SDS011;1666;48.898;9.182;2024-02-14T04:35:54;7.75;;;4.60;;
3307;SDS011;1666;48.898;9.182;2024-02-14T04:38:24;8.55;;;4.68;;
3307;SDS011;1666;48.898;9.182;2024-02-14T04:40:55;12.75;;;5.10;;
3307;SDS011;1666;48.898;9.182;2024-02-14T04:43:26;10.27;;;4.78;;
3307;SDS011;1666;48.898;9.182;2024-02-14T04:45:58;7.30;;;4.43;;
3307;SDS011;1666;48.898;9.182;2024-02-14T04:48:28;6.38;;;4.20;;
3307;SDS011;1666;48.898;9.182;2024-02-14T04:50:59;10.10;;;4.30;;
3307;SDS011;1666;48.898;9.182;2024-02-14T04:53:31;10.43;;;4.55;;
3307;SDS011;1666;48.898;9.182;2024-02-14T04:56:02;6.30;;;3.38;;
3307;SDS011;1666;48.898;9.182;2024-02-14T04:58:32;6.95;;;3.67;;
3307;SDS011;1666;48.898;9.182;2024-02-14T05:01:05;8.30;;;3.15;;
3307;SDS011;1666;48.898;9.182;2024-02-14T05:03:37;4.60;;;2.83;;
3307;SDS011;1666;48.898;9.182;2024-02-14T05:06:07;10.00;;;3.22;;
3307;SDS011;1666;48.898;9.182;2024-02-14T05:08:37;5.00;;;2.33;;
3307;SDS011;1666;48.898;9.182;2024-02-14T05:11:07;3.42;;;2.20;;
3307;SDS011;1666;48.898;9.182;2024-02-14T05:13:37;8.07;;;2.80;;
3307;SDS011;1666;48.898;9.182;2024-02-14T05:16:10;6.03;;;2.70;;
3307;SDS011;1666;48.898;9.182;2024-02-14T05:18:40;6.13;;;2.50;;
3307;SDS011;1666;48.898;9.182;2024-02-14T05:21:11;4.32;;;2.75;;
3307;SDS011;1666;48.898;9.182;2024-02-14T05:23:41;7.00;;;2.88;;
3307;SDS011;1666;48.898;9.182;2024-02-14T05:26:12;6.57;;;3.70;;
3307;SDS011;1666;48.898;9.182;2024-02-14T05:28:42;7.57;;;4.13;;
3307;SDS011;1666;48.898;9.182;2024-02-14T05:31:15;6.70;;;3.60;;
3307;SDS011;1666;48.898;9.182;2024-02-14T05:33:45;10.43;;;3.83;;
3307;SDS011;1666;48.898;9.182;2024-02-14T05:36:16;8.68;;;3.80;;
3307;SDS011;1666;48.898;9.182;2024-02-14T05:38:46;5.25;;;3.75;;
3307;SDS011;1666;48.898;9.182;2024-02-14T05:41:16;7.88;;;4.07;;
3307;SDS011;1666;48.898;9.182;2024-02-14T05:43:46;5.82;;;4.10;;
3307;SDS011;1666;48.898;9.182;2024-02-14T05:46:18;9.82;;;4.15;;
3307;SDS011;1666;48.898;9.182;2024-02-14T05:48:49;12.68;;;5.03;;
3307;SDS011;1666;48.898;9.182;2024-02-14T05:51:19;8.18;;;4.63;;
3307;SDS011;1666;48.898;9.182;2024-02-14T05:53:49;11.20;;;5.43;;
3307;SDS011;1666;48.898;9.182;2024-02-14T05:56:20;11.65;;;6.13;;
3307;SDS011;1666;48.898;9.182;2024-02-14T05:58:50;10.35;;;6.05;;
3307;SDS011;1666;48.898;9.182;2024-02-14T06:01:23;9.68;;;6.00;;
3307;SDS011;1666;48.898;9.182;2024-02-14T06:06:25;12.90;;;5.72;;
3307;SDS011;1666;48.898;9.182;2024-02-14T06:08:55;12.52;;;6.18;;
3307;SDS011;1666;48.898;9.182;2024-02-14T06:11:26;9.35;;;5.47;;
3307;SDS011;1666;48.898;9.182;2024-02-14T06:13:56;10.15;;;5.90;;
3307;SDS011;1666;48.898;9.182;2024-02-14T06:16:29;11.85;;;5.95;;
3307;SDS011;1666;48.898;9.182;2024-02-14T06:18:59;13.38;;;6.25;;
3307;SDS011;1666;48.898;9.182;2024-02-14T06:21:31;9.38;;;6.55;;
3307;SDS011;1666;48.898;9.182;2024-02-14T06:24:02;11.93;;;6.53;;
3307;SDS011;1666;48.898;9.182;2024-02-14T06:26:33;12.35;;;6.70;;
3307;SDS011;1666;48.898;9.182;2024-02-14T06:29:03;11.60;;;6.80;;
3307;SDS011;1666;48.898;9.182;2024-02-14T06:31:36;11.60;;;6.03;;
3307;SDS011;1666;48.898;9.182;2024-02-14T06:34:06;14.57;;;6.03;;
3307;SDS011;1666;48.898;9.182;2024-02-14T06:36:37;11.25;;;6.28;;
3307;SDS011;1666;48.898;9.182;2024-02-14T06:39:07;12.23;;;6.38;;
3307;SDS011;1666;48.898;9.182;2024-02-14T06:41:37;13.25;;;6.90;;
3307;SDS011;1666;48.898;9.182;2024-02-14T06:44:07;12.07;;;7.72;;
3307;SDS011;1666;48.898;9.182;2024-02-14T06:46:40;9.48;;;6.25;;
3307;SDS011;1666;48.898;9.182;2024-02-14T06:49:10;12.82;;;6.85;;
3307;SDS011;1666;48.898;9.182;2024-02-14T06:51:41;13.27;;;7.18;;
3307;SDS011;1666;48.898;9.182;2024-02-14T06:54:11;11.98;;;7.00;;
3307;SDS011;1666;48.898;9.182;2024-02-14T06:56:43;10.95;;;6.35;;
3307;SDS011;1666;48.898;9.182;2024-02-14T06:59:14;10.40;;;6.13;;
3307;SDS011;1666;48.898;9.182;2024-02-14T07:01:47;14.13;;;6.35;;
3307;SDS011;1666;48.898;9.182;2024-02-14T07:04:20;17.45;;;6.40;;
3307;SDS011;1666;48.898;9.182;2024-02-14T07:06:52;10.98;;;5.60;;
3307;SDS011;1666;48.898;9.182;2024-02-14T07:09:23;12.38;;;5.70;;
3307;SDS011;1666;48.898;9.182;2024-02-14T07:11:55;14.07;;;6.10;;
3307;SDS011;1666;48.898;9.182;2024-02-14T07:14:25;12.25;;;6.05;;
3307;SDS011;1666;48.898;9.182;2024-02-14T07:16:58;14.35;;;5.75;;
3307;SDS011;1666;48.898;9.182;2024-02-14T07:19:28;13.20;;;5.40;;
3307;SDS011;1666;48.898;9.182;2024-02-14T07:21:58;11.55;;;5.60;;
3307;SDS011;1666;48.898;9.182;2024-02-14T07:24:28;8.82;;;5.07;;
3307;SDS011;1666;48.898;9.182;2024-02-14T07:26:58;9.13;;;5.20;;
3307;SDS011;1666;48.898;9.182;2024-02-14T07:29:28;8.35;;;5.03;;
3307;SDS011;1666;48.898;9.182;2024-02-14T07:32:01;9.40;;;5.00;;
3307;SDS011;1666;48.898;9.182;2024-02-14T07:34:33;10.73;;;5.38;;
3307;SDS011;1666;48.898;9.182;2024-02-14T07:37:03;9.32;;;5.32;;
3307;SDS011;1666;48.898;9.182;2024-02-14T07:39:33;11.68;;;5.30;;
3307;SDS011;1666;48.898;9.182;2024-02-14T07:42:04;11.10;;;5.57;;
3307;SDS011;1666;48.898;9.182;2024-02-14T07:44:34;8.65;;;4.75;;
3307;SDS011;1666;48.898;9.182;2024-02-14T07:47:07;8.40;;;4.53;;
3307;SDS011;1666;48.898;9.182;2024-02-14T07:49:38;7.22;;;3.60;;
3307;SDS011;1666;48.898;9.182;2024-02-14T07:52:09;5.78;;;3.38;;
3307;SDS011;1666;48.898;9.182;2024-02-14T07:54:39;6.95;;;3.35;;
3307;SDS011;1666;48.898;9.182;2024-02-14T07:57:09;9.05;;;3.42;;
3307;SDS011;1666;48.898;9.182;2024-02-14T07:59:39;7.72;;;2.90;;
3307;SDS011;1666;48.898;9.182;2024-02-14T08:02:11;7.05;;;2.40;;
3307;SDS011;1666;48.898;9.182;2024-02-14T08:04:41;5.10;;;2.45;;
3307;SDS011;1666;48.898;9.182;2024-02-14T08:07:12;5.38;;;2.60;;
3307;SDS011;1666;48.898;9.182;2024-02-14T08:09:42;6.40;;;2.75;;
3307;SDS011;1666;48.898;9.182;2024-02-14T08:12:12;6.45;;;2.92;;
3307;SDS011;1666;48.898;9.182;2024-02-14T08:14:42;4.53;;;2.20;;
3307;SDS011;1666;48.898;9.182;2024-02-14T08:17:16;5.95;;;2.75;;
3307;SDS011;1666;48.898;9.182;2024-02-14T08:19:46;5.22;;;2.13;;
3307;SDS011;1666;48.898;9.182;2024-02-14T08:22:17;9.63;;;3.10;;
3307;SDS011;1666;48.898;9.182;2024-02-14T08:24:47;4.60;;;2.45;;
3307;SDS011;1666;48.898;9.182;2024-02-14T08:27:17;11.05;;;3.45;;
3307;SDS011;1666;48.898;9.182;2024-02-14T08:29:48;11.40;;;3.22;;
3307;SDS011;1666;48.898;9.182;2024-02-14T08:32:21;10.30;;;3.70;;
3307;SDS011;1666;48.898;9.182;2024-02-14T08:34:52;6.13;;;3.80;;
3307;SDS011;1666;48.898;9.182;2024-02-14T08:37:23;7.95;;;3.78;;
3307;SDS011;1666;48.898;9.182;2024-02-14T08:39:53;8.23;;;4.90;;
3307;SDS011;1666;48.898;9.182;2024-02-14T08:42:23;6.40;;;3.22;;
3307;SDS011;1666;48.898;9.182;2024-02-14T08:44:53;14.50;;;3.63;;
3307;SDS011;1666;48.898;9.182;2024-02-14T08:47:26;9.90;;;3.45;;
3307;SDS011;1666;48.898;9.182;2024-02-14T08:49:56;9.77;;;3.63;;
3307;SDS011;1666;48.898;9.182;2024-02-14T08:52:26;12.85;;;3.75;;
3307;SDS011;1666;48.898;9.182;2024-02-14T08:54:56;12.60;;;4.20;;
3307;SDS011;1666;48.898;9.182;2024-02-14T08:57:26;14.63;;;6.03;;
3307;SDS011;1666;48.898;9.182;2024-02-14T08:59:58;16.60;;;8.15;;
3307;SDS011;1666;48.898;9.182;2024-02-14T09:02:32;25.73;;;11.25;;
3307;SDS011;1666;48.898;9.182;2024-02-14T09:05:02;31.00;;;14.13;;
3307;SDS011;1666;48.898;9.182;2024-02-14T09:07:32;43.50;;;15.88;;
3307;SDS011;1666;48.898;9.182;2024-02-14T09:10:03;29.50;;;12.82;;
3307;SDS011;1666;48.898;9.182;2024-02-14T09:12:34;28.05;;;10.10;;
3307;SDS011;1666;48.898;9.182;2024-02-14T09:15:04;12.32;;;5.20;;
3307;SDS011;1666;48.898;9.182;2024-02-14T09:17:38;6.88;;;3.00;;
3307;SDS011;1666;48.898;9.182;2024-02-14T09:20:09;4.65;;;2.65;;
3307;SDS011;1666;48.898;9.182;2024-02-14T09:22:41;4.45;;;2.20;;
3307;SDS011;1666;48.898;9.182;2024-02-14T09:25:11;5.88;;;1.88;;
3307;SDS011;1666;48.898;9.182;2024-02-14T09:27:41;5.70;;;1.63;;
3307;SDS011;1666;48.898;9.182;2024-02-14T09:30:13;4.22;;;1.70;;
3307;SDS011;1666;48.898;9.182;2024-02-14T09:33:00;2.90;;;1.60;;
3307;SDS011;1666;48.898;9.182;2024-02-14T09:35:32;4.93;;;3.30;;
3307;SDS011;1666;48.898;9.182;2024-02-14T09:38:04;4.32;;;2.30;;
3307;SDS011;1666;48.898;9.182;2024-02-14T09:40:34;3.28;;;1.30;;
3307;SDS011;1666;48.898;9.182;2024-02-14T09:43:05;4.05;;;1.60;;
3307;SDS011;1666;48.898;9.182;2024-02-14T09:45:41;4.03;;;1.55;;
3307;SDS011;1666;48.898;9.182;2024-02-14T09:48:15;5.10;;;1.88;;
3307;SDS011;1666;48.898;9.182;2024-02-14T09:50:48;3.85;;;1.70;;
3307;SDS011;1666;48.898;9.182;2024-02-14T09:53:18;3.88;;;1.58;;
3307;SDS011;1666;48.898;9.182;2024-02-14T09:55:50;4.57;;;1.80;;
3307;SDS011;1666;48.898;9.182;2024-02-14T09:58:20;2.83;;;1.52;;
3307;SDS011;1666;48.898;9.182;2024-02-14T10:00:59;8.23;;;1.90;;
3307;SDS011;1666;48.898;9.182;2024-02-14T10:03:32;4.57;;;1.48;;
3307;SDS011;1666;48.898;9.182;2024-02-14T10:06:03;2.40;;;1.63;;
3307;SDS011;1666;48.898;9.182;2024-02-14T10:08:33;4.15;;;1.17;;
3307;SDS011;1666;48.898;9.182;2024-02-14T10:11:20;2.20;;;1.20;;
3307;SDS011;1666;48.898;9.182;2024-02-14T10:13:53;5.28;;;1.30;;
3307;SDS011;1666;48.898;9.182;2024-02-14T10:16:28;2.58;;;1.42;;
3307;SDS011;1666;48.898;9.182;2024-02-14T10:19:01;6.85;;;1.42;;
3307;SDS011;1666;48.898;9.182;2024-02-14T10:21:34;3.92;;;1.27;;
3307;SDS011;1666;48.898;9.182;2024-02-14T10:24:08;3.80;;;1.70;;
3307;SDS011;1666;48.898;9.182;2024-02-14T10:26:38;2.22;;;1.05;;
3307;SDS011;1666;48.898;9.182;2024-02-14T10:29:09;4.07;;;1.38;;
3307;SDS011;1666;48.898;9.182;2024-02-14T10:31:40;1.80;;;1.48;;
3307;SDS011;1666;48.898;9.182;2024-02-14T10:34:13;4.15;;;2.88;;
3307;SDS011;1666;48.898;9.182;2024-02-14T10:36:43;3.38;;;2.30;;
3307;SDS011;1666;48.898;9.182;2024-02-14T10:39:14;3.17;;;1.40;;
3307;SDS011;1666;48.898;9.182;2024-02-14T10:41:46;2.17;;;1.17;;
3307;SDS011;1666;48.898;9.182;2024-02-14T10:44:17;2.00;;;1.02;;
3307;SDS011;1666;48.898;9.182;2024-02-14T10:46:47;4.80;;;1.50;;
3307;SDS011;1666;48.898;9.182;2024-02-14T10:51:56;1.73;;;1.23;;
3307;SDS011;1666;48.898;9.182;2024-02-14T10:54:31;2.95;;;1.55;;
3307;SDS011;1666;48.898;9.182;2024-02-14T10:57:05;1.98;;;1.20;;
3307;SDS011;1666;48.898;9.182;2024-02-14T11:02:11;1.65;;;1.10;;
3307;SDS011;1666;48.898;9.182;2024-02-14T11:04:44;4.55;;;1.60;;
3307;SDS011;1666;48.898;9.182;2024-02-14T11:07:19;2.90;;;1.48;;
3307;SDS011;1666;48.898;9.182;2024-02-14T11:09:59;2.15;;;1.80;;
3307;SDS011;1666;48.898;9.182;2024-02-14T11:12:32;10.00;;;1.30;;
3307;SDS011;1666;48.898;9.182;2024-02-14T11:15:08;6.22;;;2.05;;
3307;SDS011;1666;48.898;9.182;2024-02-14T11:17:40;1.80;;;1.20;;
3307;SDS011;1666;48.898;9.182;2024-02-14T11:20:20;3.33;;;1.35;;
3307;SDS011;1666;48.898;9.182;2024-02-14T11:23:01;3.78;;;1.40;;
3307;SDS011;1666;48.898;9.182;2024-02-14T11:25:33;2.85;;;1.50;;
3307;SDS011;1666;48.898;9.182;2024-02-14T11:28:12;2.13;;;1.30;;
3307;SDS011;1666;48.898;9.182;2024-02-14T11:30:43;3.33;;;1.83;;
3307;SDS011;1666;48.898;9.182;2024-02-14T11:33:15;4.25;;;1.48;;
3307;SDS011;1666;48.898;9.182;2024-02-14T11:35:50;3.72;;;1.48;;
3307;SDS011;1666;48.898;9.182;2024-02-14T11:38:22;2.88;;;1.48;;
3307;SDS011;1666;48.898;9.182;2024-02-14T11:40:53;2.70;;;1.20;;
3307;SDS011;1666;48.898;9.182;2024-02-14T11:43:24;2.47;;;1.50;;
3307;SDS011;1666;48.898;9.182;2024-02-14T11:45:54;2.95;;;1.45;;
3307;SDS011;1666;48.898;9.182;2024-02-14T11:48:24;5.75;;;2.00;;
3307;SDS011;1666;48.898;9.182;2024-02-14T11:50:57;3.05;;;1.50;;
3307;SDS011;1666;48.898;9.182;2024-02-14T11:53:28;4.35;;;1.20;;
3307;SDS011;1666;48.898;9.182;2024-02-14T11:56:01;3.60;;;1.60;;
3307;SDS011;1666;48.898;9.182;2024-02-14T11:58:31;2.85;;;1.60;;
3307;SDS011;1666;48.898;9.182;2024-02-14T12:01:03;2.42;;;1.30;;
3307;SDS011;1666;48.898;9.182;2024-02-14T12:03:33;4.60;;;2.05;;
3307;SDS011;1666;48.898;9.182;2024-02-14T12:06:08;3.85;;;1.85;;
3307;SDS011;1666;48.898;9.182;2024-02-14T12:08:39;5.68;;;2.08;;
3307;SDS011;1666;48.898;9.182;2024-02-14T12:11:10;3.47;;;1.90;;
3307;SDS011;1666;48.898;9.182;2024-02-14T12:13:40;5.30;;;1.83;;
3307;SDS011;1666;48.898;9.182;2024-02-14T12:16:13;2.67;;;1.48;;
3307;SDS011;1666;48.898;9.182;2024-02-14T12:18:43;2.47;;;1.60;;
3307;SDS011;1666;48.898;9.182;2024-02-14T12:21:16;2.63;;;1.70;;
3307;SDS011;1666;48.898;9.182;2024-02-14T12:23:46;4.05;;;1.90;;
3307;SDS011;1666;48.898;9.182;2024-02-14T12:26:20;4.22;;;2.00;;
3307;SDS011;1666;48.898;9.182;2024-02-14T12:28:51;7.47;;;2.10;;
3307;SDS011;1666;48.898;9.182;2024-02-14T12:31:21;3.15;;;1.05;;
3307;SDS011;1666;48.898;9.182;2024-02-14T12:33:52;4.85;;;1.58;;
3307;SDS011;1666;48.898;9.182;2024-02-14T12:36:27;2.80;;;1.20;;
3307;SDS011;1666;48.898;9.182;2024-02-14T12:38:59;3.60;;;1.50;;
3307;SDS011;1666;48.898;9.182;2024-02-14T12:41:30;6.90;;;1.85;;
3307;SDS011;1666;48.898;9.182;2024-02-14T12:44:04;2.65;;;1.20;;
3307;SDS011;1666;48.898;9.182;2024-02-14T12:46:34;3.60;;;1.27;;
3307;SDS011;1666;48.898;9.182;2024-02-14T12:49:05;9.63;;;1.38;;
3307;SDS011;1666;48.898;9.182;2024-02-14T12:51:38;5.05;;;1.17;;
3307;SDS011;1666;48.898;9.182;2024-02-14T12:54:09;1.13;;;0.73;;
3307;SDS011;1666;48.898;9.182;2024-02-14T12:56:41;3.05;;;0.98;;
3307;SDS011;1666;48.898;9.182;2024-02-14T12:59:14;1.02;;;0.80;;
3307;SDS011;1666;48.898;9.182;2024-02-14T13:01:47;1.65;;;0.70;;
3307;SDS011;1666;48.898;9.182;2024-02-14T13:04:18;3.60;;;1.10;;
3307;SDS011;1666;48.898;9.182;2024-02-14T13:06:50;5.32;;;1.10;;
3307;SDS011;1666;48.898;9.182;2024-02-14T13:09:21;2.95;;;0.50;;
3307;SDS011;1666;48.898;9.182;2024-02-14T13:11:53;3.35;;;0.85;;
3307;SDS011;1666;48.898;9.182;2024-02-14T13:14:23;1.05;;;0.50;;
3307;SDS011;1666;48.898;9.182;2024-02-14T13:16:55;4.00;;;0.65;;
3307;SDS011;1666;48.898;9.182;2024-02-14T13:19:25;2.25;;;0.52;;
3307;SDS011;1666;48.898;9.182;2024-02-14T13:21:58;0.80;;;0.50;;
3307;SDS011;1666;48.898;9.182;2024-02-14T13:24:29;4.60;;;1.00;;
3307;SDS011;1666;48.898;9.182;2024-02-14T13:26:58;2.55;;;0.52;;
3307;SDS011;1666;48.898;9.182;2024-02-14T13:29:29;3.25;;;0.70;;
3307;SDS011;1666;48.898;9.182;2024-02-14T13:31:59;5.22;;;1.83;;
3307;SDS011;1666;48.898;9.182;2024-02-14T13:34:29;2.42;;;0.80;;
3307;SDS011;1666;48.898;9.182;2024-02-14T13:37:03;0.82;;;0.57;;
3307;SDS011;1666;48.898;9.182;2024-02-14T13:39:33;3.63;;;1.00;;
3307;SDS011;1666;48.898;9.182;2024-02-14T13:42:03;5.47;;;1.20;;
3307;SDS011;1666;48.898;9.182;2024-02-14T13:44:35;5.65;;;2.80;;
3307;SDS011;1666;48.898;9.182;2024-02-14T13:47:05;4.60;;;1.92;;
3307;SDS011;1666;48.898;9.182;2024-02-14T13:49:35;6.60;;;0.88;;
3307;SDS011;1666;48.898;9.182;2024-02-14T13:52:07;2.17;;;0.90;;
3307;SDS011;1666;48.898;9.182;2024-02-14T13:54:38;10.40;;;1.08;;
3307;SDS011;1666;48.898;9.182;2024-02-14T13:57:08;2.40;;;0.52;;
3307;SDS011;1666;48.898;9.182;2024-02-14T13:59:38;2.15;;;0.60;;
3307;SDS011;1666;48.898;9.182;2024-02-14T14:02:08;10.38;;;0.90;;
3307;SDS011;1666;48.898;9.182;2024-02-14T14:04:38;3.70;;;0.80;;
3307;SDS011;1666;48.898;9.182;2024-02-14T14:07:11;2.17;;;0.90;;
3307;SDS011;1666;48.898;9.182;2024-02-14T14:09:41;5.97;;;1.13;;
3307;SDS011;1666;48.898;9.182;2024-02-14T14:12:11;4.95;;;0.60;;
3307;SDS011;1666;48.898;9.182;2024-02-14T14:14:41;4.10;;;0.77;;
3307;SDS011;1666;48.898;9.182;2024-02-14T14:17:12;1.17;;;0.50;;
3307;SDS011;1666;48.898;9.182;2024-02-14T14:19:42;3.10;;;0.50;;
3307;SDS011;1666;48.898;9.182;2024-02-14T14:22:14;2.13;;;0.63;;
3307;SDS011;1666;48.898;9.182;2024-02-14T14:24:45;3.38;;;0.60;;
3307;SDS011;1666;48.898;9.182;2024-02-14T14:27:15;1.67;;;0.75;;
3307;SDS011;1666;48.898;9.182;2024-02-14T14:29:48;1.45;;;0.60;;
3307;SDS011;1666;48.898;9.182;2024-02-14T14:32:18;2.20;;;0.90;;
3307;SDS011;1666;48.898;9.182;2024-02-14T14:34:48;2.03;;;0.52;;
3307;SDS011;1666;48.898;9.182;2024-02-14T14:37:21;7.75;;;0.68;;
3307;SDS011;1666;48.898;9.182;2024-02-14T14:39:51;2.88;;;0.68;;
3307;SDS011;1666;48.898;9.182;2024-02-14T14:42:23;1.50;;;0.70;;
3307;SDS011;1666;48.898;9.182;2024-02-14T14:44:53;2.05;;;0.40;;
3307;SDS011;1666;48.898;9.182;2024-02-14T14:47:24;2.83;;;0.70;;
3307;SDS011;1666;48.898;9.182;2024-02-14T14:49:54;2.70;;;0.52;;
3307;SDS011;1666;48.898;9.182;2024-02-14T14:52:28;2.42;;;0.60;;
3307;SDS011;1666;48.898;9.182;2024-02-14T14:54:58;0.73;;;0.47;;
3307;SDS011;1666;48.898;9.182;2024-02-14T14:57:29;1.40;;;0.45;;
3307;SDS011;1666;48.898;9.182;2024-02-14T14:59:59;1.02;;;0.52;;
3307;SDS011;1666;48.898;9.182;2024-02-14T15:02:29;1.00;;;0.50;;
3307;SDS011;1666;48.898;9.182;2024-02-14T15:04:59;1.70;;;0.80;;
3307;SDS011;1666;48.898;9.182;2024-02-14T15:07:32;2.08;;;0.50;;
3307;SDS011;1666;48.898;9.182;2024-02-14T15:10:03;2.30;;;0.90;;
3307;SDS011;1666;48.898;9.182;2024-02-14T15:12:34;1.70;;;0.93;;
3307;SDS011;1666;48.898;9.182;2024-02-14T15:15:05;2.63;;;0.90;;
3307;SDS011;1666;48.898;9.182;2024-02-14T15:17:38;1.92;;;1.00;;
3307;SDS011;1666;48.898;9.182;2024-02-14T15:20:09;6.50;;;1.00;;
3307;SDS011;1666;48.898;9.182;2024-02-14T15:22:42;9.68;;;1.20;;
3307;SDS011;1666;48.898;9.182;2024-02-14T15:25:12;3.47;;;0.90;;
3307;SDS011;1666;48.898;9.182;2024-02-14T15:27:42;5.78;;;1.08;;
3307;SDS011;1666;48.898;9.182;2024-02-14T15:30:21;2.17;;;0.90;;
3307;SDS011;1666;48.898;9.182;2024-02-14T15:33:04;6.82;;;1.08;;
3307;SDS011;1666;48.898;9.182;2024-02-14T15:35:47;16.20;;;1.65;;
3307;SDS011;1666;48.898;9.182;2024-02-14T15:38:20;2.88;;;0.93;;
3307;SDS011;1666;48.898;9.182;2024-02-14T15:40:51;3.70;;;1.10;;
3307;SDS011;1666;48.898;9.182;2024-02-14T15:43:24;7.13;;;1.35;;
3307;SDS011;1666;48.898;9.182;2024-02-14T15:45:55;2.90;;;1.17;;
3307;SDS011;1666;48.898;9.182;2024-02-14T15:48:26;1.35;;;0.75;;
3307;SDS011;1666;48.898;9.182;2024-02-14T15:50:56;3.92;;;0.82;;